createdAt,value
2018-05-01T00:00:34.486Z,55.80
2018-05-01T00:03:02.177Z,55.50
2018-05-01T00:05:29.858Z,55.40
2018-05-01T00:07:58.420Z,55.00
2018-05-01T00:10:26.970Z,54.50
2018-05-01T00:12:54.634Z,53.90
2018-05-01T00:15:22.280Z,53.60
2018-05-01T00:17:50.067Z,53.00
2018-05-01T00:20:17.861Z,53.30
2018-05-01T00:22:46.248Z,53.10
2018-05-01T00:25:14.679Z,53.30
2018-05-01T00:27:42.355Z,52.90
2018-05-01T00:30:09.981Z,52.90
2018-05-01T00:32:37.772Z,52.90
2018-05-01T00:35:05.395Z,52.80
2018-05-01T00:37:33.802Z,52.50
2018-05-01T00:40:01.413Z,52.50
2018-05-01T00:42:29.165Z,53.30
2018-05-01T00:44:57.393Z,54.20
2018-05-01T00:47:25.053Z,53.90
2018-05-01T00:49:52.781Z,54.20
2018-05-01T00:52:32.383Z,54.60
2018-05-01T00:55:00.040Z,54.50
2018-05-01T00:57:27.687Z,54.80
2018-05-01T00:59:55.472Z,54.70
2018-05-01T01:02:23.852Z,55.10
2018-05-01T01:04:51.509Z,55.30
2018-05-01T01:07:19.192Z,56.40
2018-05-01T01:09:46.869Z,57.10
2018-05-01T01:12:14.530Z,57.20
2018-05-01T01:14:42.177Z,56.70
2018-05-01T01:17:09.833Z,56.80
2018-05-01T01:19:37.659Z,57.60
2018-05-01T01:22:05.288Z,57.60
2018-05-01T01:24:32.895Z,56.40
2018-05-01T01:27:00.680Z,57.00
2018-05-01T01:29:28.445Z,57.90
2018-05-01T01:32:01.910Z,57.80
2018-05-01T01:34:29.541Z,57.60
2018-05-01T01:36:56.732Z,57.60
2018-05-01T01:39:23.883Z,57.90
2018-05-01T01:41:51.023Z,58.10
2018-05-01T01:44:18.206Z,58.60
2018-05-01T01:46:45.389Z,59.80
2018-05-01T01:49:14.024Z,57.60
2018-05-01T01:51:41.194Z,57.50
2018-05-01T01:54:09.164Z,57.30
2018-05-01T01:56:36.456Z,56.90
2018-05-01T01:59:04.393Z,57.20
2018-05-01T02:01:31.640Z,57.20
2018-05-01T02:03:58.921Z,56.50
2018-05-01T02:06:26.178Z,57.70
2018-05-01T02:08:53.501Z,57.30
2018-05-01T02:11:20.659Z,58.30
2018-05-01T02:13:47.932Z,59.40
2018-05-01T02:16:16.619Z,60.40
2018-05-01T02:18:43.944Z,60.30
2018-05-01T02:21:11.096Z,60.60
2018-05-01T02:23:38.401Z,60.30
2018-05-01T02:26:06.353Z,61.70
2018-05-01T02:28:33.541Z,61.70
2018-05-01T02:31:00.718Z,61.20
2018-05-01T02:33:28.012Z,59.40
2018-05-01T02:35:55.920Z,59.20
2018-05-01T02:38:23.129Z,59.20
2018-05-01T02:40:50.455Z,60.20
2018-05-01T02:43:17.808Z,60.70
2018-05-01T02:45:44.986Z,61.30
2018-05-01T02:48:12.245Z,62.10
2018-05-01T02:50:39.564Z,63.30
2018-05-01T02:53:06.918Z,64.00
2018-05-01T02:55:34.117Z,65.60
2018-05-01T02:58:03.109Z,64.80
2018-05-01T03:00:31.104Z,65.60
2018-05-01T03:02:58.316Z,65.50
2018-05-01T03:05:25.465Z,64.40
2018-05-01T03:07:52.648Z,65.70
2018-05-01T03:10:20.548Z,67.00
2018-05-01T03:12:47.766Z,67.00
2018-05-01T03:15:15.723Z,69.30
2018-05-01T03:17:43.672Z,69.40
2018-05-01T03:20:10.788Z,69.40
2018-05-01T03:22:37.953Z,68.50
2018-05-01T03:25:05.298Z,67.10
2018-05-01T03:27:32.654Z,67.80
2018-05-01T03:29:59.777Z,70.30
2018-05-01T03:32:26.938Z,71.30
2018-05-01T03:34:54.207Z,71.60
2018-05-01T03:37:21.366Z,70.20
2018-05-01T03:39:48.523Z,68.30
2018-05-01T03:42:15.785Z,70.10
2018-05-01T03:44:43.041Z,68.30
2018-05-01T03:47:10.265Z,70.40
2018-05-01T03:49:37.444Z,72.30
2018-05-01T03:52:05.005Z,69.10
2018-05-01T03:54:32.331Z,68.10
2018-05-01T03:56:59.490Z,69.70
2018-05-01T03:59:26.837Z,70.10
2018-05-01T04:01:53.985Z,71.80
2018-05-01T04:04:21.153Z,72.40
2018-05-01T04:06:48.430Z,71.30
2018-05-01T04:09:16.410Z,72.70
2018-05-01T04:11:44.340Z,71.40
2018-05-01T04:14:11.527Z,71.40
2018-05-01T04:16:39.460Z,70.90
2018-05-01T04:19:06.623Z,70.80
2018-05-01T04:21:33.760Z,70.80
2018-05-01T04:24:00.899Z,70.90
2018-05-01T04:26:28.258Z,71.80
2018-05-01T04:28:55.408Z,70.70
2018-05-01T04:31:22.762Z,71.10
2018-05-01T04:33:49.896Z,71.20
2018-05-01T04:36:17.085Z,71.70
2018-05-01T04:38:44.305Z,72.60
2018-05-01T04:41:11.423Z,72.50
2018-05-01T04:43:39.435Z,72.30
2018-05-01T04:46:06.644Z,72.20
2018-05-01T04:48:33.879Z,73.90
2018-05-01T04:51:01.938Z,75.10
2018-05-01T04:53:29.196Z,75.30
2018-05-01T04:55:58.055Z,75.90
2018-05-01T04:58:25.189Z,75.90
2018-05-01T05:00:52.559Z,75.40
2018-05-01T05:03:19.694Z,76.30
2018-05-01T05:05:47.862Z,76.30
2018-05-01T05:08:15.066Z,75.60
2018-05-01T05:10:42.215Z,74.70
2018-05-01T05:13:09.380Z,74.70
2018-05-01T05:15:37.498Z,76.00
2018-05-01T05:18:04.666Z,75.20
2018-05-01T05:20:31.837Z,75.20
2018-05-01T05:22:59.165Z,74.70
2018-05-01T05:25:26.424Z,71.30
2018-05-01T05:27:53.774Z,70.90
2018-05-01T05:30:20.907Z,72.30
2018-05-01T05:32:48.181Z,72.90
2018-05-01T05:35:15.359Z,71.40
2018-05-01T05:37:42.535Z,71.50
2018-05-01T05:40:09.672Z,71.70
2018-05-01T05:42:37.733Z,71.90
2018-05-01T05:45:05.713Z,71.50
2018-05-01T05:47:33.604Z,71.30
2018-05-01T05:50:00.720Z,71.30
2018-05-01T05:52:27.952Z,71.50
2018-05-01T05:54:55.116Z,72.00
2018-05-01T05:57:23.777Z,73.90
2018-05-01T05:59:51.043Z,73.90
2018-05-01T06:02:18.246Z,73.80
2018-05-01T06:04:45.636Z,74.80
2018-05-01T06:07:12.888Z,75.10
2018-05-01T06:09:40.067Z,75.70
2018-05-01T06:12:07.398Z,75.50
2018-05-01T06:14:34.578Z,76.80
2018-05-01T06:17:02.491Z,75.20
2018-05-01T06:19:29.661Z,75.60
2018-05-01T06:21:56.813Z,75.50
2018-05-01T06:24:24.084Z,75.30
2018-05-01T06:26:51.349Z,74.20
2018-05-01T06:29:19.436Z,71.80
2018-05-01T06:31:48.301Z,72.80
2018-05-01T06:34:15.444Z,72.70
2018-05-01T06:36:42.790Z,71.70
2018-05-01T06:39:10.074Z,70.60
2018-05-01T06:41:37.346Z,69.90
2018-05-01T06:44:04.650Z,67.80
2018-05-01T06:46:31.833Z,68.80
2018-05-01T06:48:59.084Z,68.80
2018-05-01T06:51:27.768Z,66.20
2018-05-01T06:53:54.944Z,66.20
2018-05-01T06:56:22.888Z,65.20
2018-05-01T06:58:50.840Z,66.30
2018-05-01T07:01:18.584Z,66.30
2018-05-01T07:03:45.951Z,65.90
2018-05-01T07:06:13.136Z,65.30
2018-05-01T07:08:40.507Z,64.00
2018-05-01T07:11:08.473Z,67.60
2018-05-01T07:13:35.692Z,66.80
2018-05-01T07:16:02.847Z,66.20
2018-05-01T07:18:30.183Z,65.60
2018-05-01T07:20:57.538Z,64.00
2018-05-01T07:23:24.723Z,61.30
2018-05-01T07:25:51.974Z,58.90
2018-05-01T07:28:19.221Z,59.80
2018-05-01T07:30:46.344Z,58.70
2018-05-01T07:33:13.698Z,57.00
2018-05-01T07:35:40.903Z,59.00
2018-05-01T07:38:08.105Z,58.70
2018-05-01T07:40:35.406Z,58.30
2018-05-01T07:43:03.141Z,59.80
2018-05-01T07:45:31.204Z,59.20
2018-05-01T07:47:58.548Z,59.20
2018-05-01T07:50:25.838Z,58.90
2018-05-01T07:52:53.796Z,58.80
2018-05-01T07:55:21.071Z,58.80
2018-05-01T07:57:49.139Z,59.60
2018-05-01T08:00:18.079Z,57.80
2018-05-01T08:02:45.222Z,57.50
2018-05-01T08:05:12.599Z,57.80
2018-05-01T08:07:39.769Z,56.70
2018-05-01T08:10:07.040Z,57.40
2018-05-01T08:12:34.181Z,57.30
2018-05-01T08:15:02.867Z,55.50
2018-05-01T08:17:30.011Z,55.50
2018-05-01T08:19:57.212Z,57.30
2018-05-01T08:22:24.363Z,57.00
2018-05-01T08:24:51.500Z,55.60
2018-05-01T08:27:18.720Z,55.20
2018-05-01T08:29:45.973Z,54.70
2018-05-01T08:32:13.298Z,54.40
2018-05-01T08:34:40.568Z,54.10
2018-05-01T08:37:08.185Z,53.60
2018-05-01T08:39:35.380Z,53.30
2018-05-01T08:42:02.647Z,52.10
2018-05-01T08:44:29.899Z,50.90
2018-05-01T08:46:57.231Z,52.30
2018-05-01T08:49:24.391Z,52.20
2018-05-01T08:51:51.625Z,51.40
2018-05-01T08:54:18.751Z,49.60
2018-05-01T08:56:45.966Z,48.30
2018-05-01T08:59:13.286Z,48.90
2018-05-01T09:01:40.641Z,49.50
2018-05-01T09:04:07.825Z,49.70
2018-05-01T09:06:35.724Z,49.90
2018-05-01T09:09:03.011Z,49.90
2018-05-01T09:11:30.300Z,50.10
2018-05-01T09:13:58.132Z,49.20
2018-05-01T09:16:25.493Z,49.20
2018-05-01T09:18:52.664Z,48.80
2018-05-01T09:21:19.990Z,48.30
2018-05-01T09:23:47.123Z,48.60
2018-05-01T09:26:14.910Z,48.70
2018-05-01T09:28:42.670Z,48.70
2018-05-01T09:31:09.869Z,49.00
2018-05-01T09:33:37.845Z,48.70
2018-05-01T09:36:05.804Z,48.00
2018-05-01T09:38:33.033Z,48.00
2018-05-01T09:41:00.975Z,48.30
2018-05-01T09:43:28.136Z,48.40
2018-05-01T09:45:55.316Z,48.40
2018-05-01T09:48:22.471Z,47.80
2018-05-01T09:50:50.430Z,47.90
2018-05-01T09:53:18.080Z,47.20
2018-05-01T09:55:45.840Z,46.90
2018-05-01T09:58:13.700Z,46.70
2018-05-01T10:00:41.394Z,46.90
2018-05-01T10:03:09.792Z,45.60
2018-05-01T10:05:38.421Z,46.10
2018-05-01T10:08:07.732Z,47.60
2018-05-01T10:10:35.424Z,47.60
2018-05-01T10:13:03.839Z,47.00
2018-05-01T10:15:32.340Z,46.80
2018-05-01T10:18:00.229Z,46.10
2018-05-01T10:20:27.887Z,45.20
2018-05-01T10:22:55.554Z,44.70
2018-05-01T10:25:23.305Z,43.90
2018-05-01T10:27:51.073Z,43.70
2018-05-01T10:30:18.939Z,42.90
2018-05-01T10:32:46.636Z,42.70
2018-05-01T10:35:14.375Z,42.10
2018-05-01T10:37:42.165Z,42.10
2018-05-01T10:40:10.724Z,41.80
2018-05-01T10:42:38.389Z,42.20
2018-05-01T10:45:06.091Z,42.10
2018-05-01T10:47:34.531Z,43.40
2018-05-01T10:50:02.295Z,43.30
2018-05-01T10:52:30.114Z,43.30
2018-05-01T10:54:59.431Z,42.00
2018-05-01T10:57:27.051Z,42.00
2018-05-01T10:59:55.802Z,42.60
2018-05-01T11:02:23.463Z,41.90
2018-05-01T11:04:51.143Z,41.20
2018-05-01T11:07:18.822Z,44.40
2018-05-01T11:09:46.555Z,46.90
2018-05-01T11:12:14.164Z,47.80
2018-05-01T11:14:42.698Z,41.70
2018-05-01T11:17:10.500Z,41.70
2018-05-01T11:19:39.062Z,43.40
2018-05-01T11:22:06.812Z,42.90
2018-05-01T11:24:34.628Z,41.50
2018-05-01T11:27:03.176Z,41.20
2018-05-01T11:29:31.231Z,41.70
2018-05-01T11:31:59.034Z,43.40
2018-05-01T11:34:26.651Z,46.90
2018-05-01T11:36:54.420Z,47.60
2018-05-01T11:39:22.123Z,41.90
2018-05-01T11:41:49.891Z,44.10
2018-05-01T11:44:18.363Z,46.20
2018-05-01T11:46:46.103Z,45.40
2018-05-01T11:49:13.790Z,46.20
2018-05-01T11:51:41.451Z,43.20
2018-05-01T11:54:09.116Z,46.00
2018-05-01T11:56:36.748Z,42.40
2018-05-01T11:59:04.406Z,41.40
2018-05-01T12:01:32.069Z,42.10
2018-05-01T12:03:59.852Z,42.30
2018-05-01T12:06:27.705Z,42.40
2018-05-01T12:08:55.399Z,45.30
2018-05-01T12:11:23.809Z,42.60
2018-05-01T12:13:51.464Z,42.40
2018-05-01T12:16:19.896Z,42.40
2018-05-01T12:18:47.587Z,42.50
2018-05-01T12:21:15.220Z,47.60
2018-05-01T12:23:42.948Z,46.60
2018-05-01T12:26:11.320Z,45.40
2018-05-01T12:28:39.230Z,45.30
2018-05-01T12:31:06.957Z,51.70
2018-05-01T12:33:34.656Z,45.70
2018-05-01T12:36:02.343Z,45.70
2018-05-01T12:38:30.001Z,43.90
2018-05-01T12:40:57.669Z,45.80
2018-05-01T12:43:25.402Z,47.10
2018-05-01T12:45:54.430Z,49.20
2018-05-01T12:48:23.967Z,42.70
2018-05-01T12:50:51.603Z,42.90
2018-05-01T12:53:19.431Z,50.90
2018-05-01T12:55:47.090Z,43.70
2018-05-01T12:58:14.858Z,41.90
2018-05-01T13:00:42.655Z,44.40
2018-05-01T13:03:10.499Z,49.00
2018-05-01T13:05:38.192Z,47.50
2018-05-01T13:08:06.639Z,46.60
2018-05-01T13:10:34.264Z,46.70
2018-05-01T13:13:01.888Z,48.80
2018-05-01T13:15:29.552Z,50.90
2018-05-01T13:17:57.171Z,43.60
2018-05-01T13:20:24.881Z,43.70
2018-05-01T13:22:52.537Z,46.60
2018-05-01T13:25:20.207Z,44.40
2018-05-01T13:27:49.473Z,42.50
2018-05-01T13:30:19.596Z,42.10
2018-05-01T13:32:47.357Z,42.10
2018-05-01T13:35:15.426Z,40.10
2018-05-01T13:37:43.045Z,45.20
2018-05-01T13:40:11.416Z,40.70
2018-05-01T13:42:39.874Z,46.90
2018-05-01T13:45:07.815Z,46.90
2018-05-01T13:47:35.431Z,41.80
2018-05-01T13:50:03.959Z,40.30
2018-05-01T13:52:31.660Z,40.40
2018-05-01T13:54:59.318Z,43.80
2018-05-01T13:57:27.094Z,42.10
2018-05-01T13:59:54.811Z,41.30
2018-05-01T14:02:22.583Z,43.20
2018-05-01T14:04:50.343Z,40.30
2018-05-01T14:07:17.973Z,38.70
2018-05-01T14:09:46.569Z,39.60
2018-05-01T14:12:15.003Z,38.90
2018-05-01T14:14:43.902Z,38.70
2018-05-01T14:17:11.829Z,40.60
2018-05-01T14:19:39.593Z,41.20
2018-05-01T14:22:07.372Z,39.80
2018-05-01T14:24:35.008Z,38.90
2018-05-01T14:27:02.660Z,39.60
2018-05-01T14:29:30.325Z,37.70
2018-05-01T14:31:58.315Z,39.60
2018-05-01T14:34:26.082Z,38.70
2018-05-01T14:36:53.948Z,38.00
2018-05-01T14:39:21.631Z,38.40
2018-05-01T14:41:49.478Z,39.40
2018-05-01T14:44:17.162Z,41.30
2018-05-01T14:46:44.942Z,38.30
2018-05-01T14:49:13.364Z,38.00
2018-05-01T14:51:41.060Z,38.00
2018-05-01T14:54:08.732Z,40.50
2018-05-01T14:56:36.349Z,38.40
2018-05-01T14:59:03.983Z,38.80
2018-05-01T15:01:32.428Z,39.20
2018-05-01T15:04:00.064Z,39.20
2018-05-01T15:06:27.696Z,37.70
2018-05-01T15:08:55.379Z,36.90
2018-05-01T15:11:23.103Z,37.00
2018-05-01T15:13:51.481Z,37.20
2018-05-01T15:16:19.228Z,37.90
2018-05-01T15:18:46.872Z,37.50
2018-05-01T15:21:14.671Z,37.70
2018-05-01T15:23:42.357Z,37.20
2018-05-01T15:26:10.063Z,37.70
2018-05-01T15:28:37.676Z,38.10
2018-05-01T15:31:06.208Z,38.30
2018-05-01T15:33:33.901Z,38.30
2018-05-01T15:36:01.570Z,37.50
2018-05-01T15:38:29.224Z,38.00
2018-05-01T15:40:56.959Z,37.40
2018-05-01T15:43:24.828Z,37.40
2018-05-01T15:45:52.435Z,37.60
2018-05-01T15:48:20.969Z,38.40
2018-05-01T15:50:48.836Z,38.30
2018-05-01T15:53:16.469Z,40.10
2018-05-01T15:55:44.129Z,39.40
2018-05-01T15:58:11.853Z,39.70
2018-05-01T16:00:39.702Z,38.10
2018-05-01T16:03:07.455Z,40.70
2018-05-01T16:05:35.142Z,39.60
2018-05-01T16:08:02.820Z,39.40
2018-05-01T16:10:30.493Z,38.90
2018-05-01T16:12:59.333Z,38.80
2018-05-01T16:15:27.202Z,38.90
2018-05-01T16:17:55.008Z,39.10
2018-05-01T16:20:23.394Z,39.60
2018-05-01T16:22:51.929Z,39.00
2018-05-01T16:25:19.694Z,38.90
2018-05-01T16:27:47.376Z,39.40
2018-05-01T16:30:15.121Z,39.20
2018-05-01T16:32:42.744Z,39.60
2018-05-01T16:35:10.491Z,39.70
2018-05-01T16:37:39.792Z,39.80
2018-05-01T16:40:07.511Z,39.60
2018-05-01T16:42:35.291Z,39.30
2018-05-01T16:45:02.982Z,39.60
2018-05-01T16:47:31.413Z,43.20
2018-05-01T16:49:59.103Z,43.20
2018-05-01T16:52:26.949Z,40.50
2018-05-01T16:54:54.630Z,40.70
2018-05-01T16:57:22.376Z,41.00
2018-05-01T16:59:50.032Z,40.40
2018-05-01T17:02:17.700Z,40.30
2018-05-01T17:04:45.790Z,40.30
2018-05-01T17:07:13.537Z,40.30
2018-05-01T17:09:41.302Z,41.00
2018-05-01T17:12:08.964Z,39.20
2018-05-01T17:14:36.627Z,39.30
2018-05-01T17:17:04.391Z,40.00
2018-05-01T17:19:32.258Z,41.80
2018-05-01T17:21:59.916Z,40.30
2018-05-01T17:24:27.687Z,41.70
2018-05-01T17:26:55.451Z,43.30
2018-05-01T17:29:23.058Z,42.30
2018-05-01T17:31:51.438Z,40.00
2018-05-01T17:34:19.906Z,38.80
2018-05-01T17:36:47.561Z,38.70
2018-05-01T17:39:15.218Z,38.50
2018-05-01T17:41:42.962Z,38.90
2018-05-01T17:44:10.828Z,38.80
2018-05-01T17:46:38.442Z,38.90
2018-05-01T17:49:06.903Z,39.90
2018-05-01T17:51:34.676Z,39.90
2018-05-01T17:54:03.132Z,39.60
2018-05-01T17:56:30.792Z,39.40
2018-05-01T17:58:58.450Z,39.80
2018-05-01T18:01:28.060Z,39.00
2018-05-01T18:03:55.673Z,39.00
2018-05-01T18:06:23.463Z,40.80
2018-05-01T18:08:51.651Z,39.50
2018-05-01T18:11:19.414Z,41.20
2018-05-01T18:13:47.113Z,40.40
2018-05-01T18:16:16.227Z,41.90
2018-05-01T18:18:44.143Z,40.50
2018-05-01T18:21:11.908Z,40.10
2018-05-01T18:23:39.671Z,39.70
2018-05-01T18:26:07.646Z,39.80
2018-05-01T18:28:35.407Z,40.50
2018-05-01T18:31:03.068Z,39.40
2018-05-01T18:33:30.831Z,39.80
2018-05-01T18:35:58.451Z,39.40
2018-05-01T18:38:26.863Z,39.50
2018-05-01T18:40:55.432Z,39.50
2018-05-01T18:43:23.195Z,39.80
2018-05-01T18:45:50.867Z,39.80
2018-05-01T18:48:18.687Z,40.10
2018-05-01T18:50:46.441Z,39.90
2018-05-01T18:53:14.312Z,40.10
2018-05-01T18:55:42.152Z,39.90
2018-05-01T18:58:09.950Z,39.90
2018-05-01T19:00:38.429Z,39.20
2018-05-01T19:03:06.405Z,39.20
2018-05-01T19:05:34.162Z,38.80
2018-05-01T19:08:01.892Z,38.90
2018-05-01T19:10:29.603Z,38.60
2018-05-01T19:12:57.446Z,39.20
2018-05-01T19:15:26.063Z,39.30
2018-05-01T19:17:54.503Z,39.60
2018-05-01T19:20:22.150Z,40.20
2018-05-01T19:22:49.794Z,39.60
2018-05-01T19:25:17.476Z,40.10
2018-05-01T19:27:45.099Z,40.30
2018-05-01T19:30:12.905Z,39.90
2018-05-01T19:32:40.529Z,40.20
2018-05-01T19:35:08.970Z,39.90
2018-05-01T19:37:36.628Z,39.90
2018-05-01T19:40:04.378Z,39.70
2018-05-01T19:42:32.241Z,39.70
2018-05-01T19:45:00.012Z,40.00
2018-05-01T19:47:27.951Z,40.10
2018-05-01T19:49:55.683Z,40.00
2018-05-01T19:52:24.413Z,40.10
2018-05-01T19:54:52.150Z,40.10
2018-05-01T19:57:20.059Z,40.50
2018-05-01T19:59:47.679Z,40.80
2018-05-01T20:02:16.108Z,41.70
2018-05-01T20:04:43.770Z,41.70
2018-05-01T20:07:11.630Z,41.80
2018-05-01T20:09:39.433Z,41.70
2018-05-01T20:12:07.992Z,42.60
2018-05-01T20:14:35.673Z,42.20
2018-05-01T20:17:03.862Z,42.50
2018-05-01T20:19:32.366Z,42.30
2018-05-01T20:22:00.748Z,42.30
2018-05-01T20:24:28.482Z,42.30
2018-05-01T20:26:57.237Z,42.60
2018-05-01T20:29:25.096Z,42.20
2018-05-01T20:31:52.740Z,43.00
2018-05-01T20:34:21.351Z,43.90
2018-05-01T20:36:49.114Z,43.90
2018-05-01T20:39:16.736Z,43.80
2018-05-01T20:41:44.887Z,43.90
2018-05-01T20:44:13.276Z,43.90
2018-05-01T20:46:41.702Z,45.30
2018-05-01T20:49:09.467Z,45.30
2018-05-01T20:51:37.239Z,45.10
2018-05-01T20:54:05.099Z,45.90
2018-05-01T20:56:32.865Z,46.10
2018-05-01T20:59:00.581Z,45.70
2018-05-01T21:01:28.347Z,45.30
2018-05-01T21:03:56.074Z,45.50
2018-05-01T21:06:23.721Z,46.60
2018-05-01T21:08:51.367Z,47.00
2018-05-01T21:11:19.090Z,47.30
2018-05-01T21:13:48.449Z,48.20
2018-05-01T21:16:16.253Z,48.10
2018-05-01T21:18:44.733Z,48.90
2018-05-01T21:21:13.160Z,49.20
2018-05-01T21:23:40.976Z,49.20
2018-05-01T21:26:08.640Z,48.80
2018-05-01T21:28:36.240Z,48.90
2018-05-01T21:31:03.910Z,48.20
2018-05-01T21:33:31.535Z,47.60
2018-05-01T21:35:59.912Z,48.50
2018-05-01T21:38:29.280Z,47.80
2018-05-01T21:40:56.933Z,47.80
2018-05-01T21:43:24.805Z,47.20
2018-05-01T21:45:52.664Z,47.10
2018-05-01T21:48:20.271Z,46.40
2018-05-01T21:50:48.655Z,47.40
2018-05-01T21:53:17.070Z,47.70
2018-05-01T21:55:44.808Z,47.60
2018-05-01T21:58:12.429Z,48.00
2018-05-01T22:00:40.109Z,47.90
2018-05-01T22:03:08.665Z,48.20
2018-05-01T22:05:36.316Z,48.10
2018-05-01T22:08:03.985Z,47.70
2018-05-01T22:10:31.853Z,48.30
2018-05-01T22:12:59.617Z,48.50
2018-05-01T22:15:27.223Z,48.60
2018-05-01T22:17:55.664Z,49.10
2018-05-01T22:20:23.319Z,49.10
2018-05-01T22:22:51.395Z,49.10
2018-05-01T22:25:19.394Z,50.10
2018-05-01T22:27:47.823Z,49.70
2018-05-01T22:30:15.611Z,49.60
2018-05-01T22:32:43.284Z,50.10
2018-05-01T22:35:10.902Z,50.50
2018-05-01T22:37:38.696Z,50.80
2018-05-01T22:40:06.492Z,50.90
2018-05-01T22:42:34.102Z,50.90
2018-05-01T22:45:01.890Z,51.20
2018-05-01T22:47:29.564Z,50.80
2018-05-01T22:49:57.315Z,50.60
2018-05-01T22:52:25.126Z,51.00
2018-05-01T22:54:53.593Z,50.50
2018-05-01T22:57:21.326Z,50.50
2018-05-01T22:59:49.017Z,50.30
2018-05-01T23:02:16.859Z,50.70
2018-05-01T23:04:44.511Z,51.00
2018-05-01T23:07:12.385Z,51.50
2018-05-01T23:09:40.059Z,51.60
2018-05-01T23:12:07.811Z,51.40
2018-05-01T23:14:35.690Z,51.50
2018-05-01T23:17:03.316Z,51.70
2018-05-01T23:19:30.960Z,52.10
2018-05-01T23:21:59.487Z,51.70
2018-05-01T23:24:27.351Z,51.70
2018-05-01T23:26:54.981Z,51.80
2018-05-01T23:29:22.778Z,52.00
2018-05-01T23:31:50.581Z,52.20
2018-05-01T23:34:19.132Z,52.60
2018-05-01T23:36:46.928Z,52.60
2018-05-01T23:39:15.318Z,52.80
2018-05-01T23:41:42.963Z,52.70
2018-05-01T23:44:10.629Z,52.70
2018-05-01T23:46:39.795Z,52.10
2018-05-01T23:49:07.563Z,52.10
2018-05-01T23:51:35.352Z,52.20
2018-05-01T23:54:02.989Z,52.30
2018-05-01T23:56:30.637Z,52.80
2018-05-01T23:58:58.319Z,52.50
